sensor_id;sensor_type;location;lat;lon;timestamp;pressure;altitude;pressure_sealevel;temperature;humidity
34243;BME280;20504;43.214;27.920;2023-02-28T00:00:04;100195.84;;;11.15;100.00
34243;BME280;20504;43.214;27.920;2023-02-28T00:02:42;100151.00;;;11.36;100.00
34243;BME280;20504;43.214;27.920;2023-02-28T00:05:10;100187.13;;;11.26;100.00
34243;BME280;20504;43.214;27.920;2023-02-28T00:07:36;100177.97;;;11.30;100.00
34243;BME280;20504;43.214;27.920;2023-02-28T00:10:04;100171.59;;;11.32;100.00
34243;BME280;20504;43.214;27.920;2023-02-28T00:12:31;100158.28;;;11.45;100.00
34243;BME280;20504;43.214;27.920;2023-02-28T00:14:57;100175.44;;;11.52;100.00
34243;BME280;20504;43.214;27.920;2023-02-28T00:17:23;100253.00;;;11.20;100.00
34243;BME280;20504;43.214;27.920;2023-02-28T00:19:49;100268.69;;;11.23;100.00
34243;BME280;20504;43.214;27.920;2023-02-28T00:22:17;100223.19;;;11.41;100.00
34243;BME280;20504;43.214;27.920;2023-02-28T00:24:43;100232.50;;;11.46;100.00
34243;BME280;20504;43.214;27.920;2023-02-28T00:27:08;100239.63;;;11.46;100.00
34243;BME280;20504;43.214;27.920;2023-02-28T00:29:34;100296.63;;;11.16;100.00
34243;BME280;20504;43.214;27.920;2023-02-28T00:31:59;100275.19;;;11.19;100.00
34243;BME280;20504;43.214;27.920;2023-02-28T00:34:25;100249.00;;;11.39;100.00
34243;BME280;20504;43.214;27.920;2023-02-28T00:36:50;100233.81;;;11.41;100.00
34243;BME280;20504;43.214;27.920;2023-02-28T00:39:16;100214.03;;;11.45;100.00
34243;BME280;20504;43.214;27.920;2023-02-28T00:41:42;100214.44;;;11.51;100.00
34243;BME280;20504;43.214;27.920;2023-02-28T00:44:07;100226.34;;;11.46;100.00
34243;BME280;20504;43.214;27.920;2023-02-28T00:46:33;100242.22;;;11.35;100.00
34243;BME280;20504;43.214;27.920;2023-02-28T00:48:58;100283.44;;;11.28;100.00
34243;BME280;20504;43.214;27.920;2023-02-28T00:51:24;100275.13;;;11.32;100.00
34243;BME280;20504;43.214;27.920;2023-02-28T00:53:49;100253.03;;;11.32;100.00
34243;BME280;20504;43.214;27.920;2023-02-28T00:56:15;100257.94;;;11.38;100.00
34243;BME280;20504;43.214;27.920;2023-02-28T00:58:40;100304.78;;;11.13;100.00
34243;BME280;20504;43.214;27.920;2023-02-28T01:01:06;100289.97;;;10.98;100.00
34243;BME280;20504;43.214;27.920;2023-02-28T01:03:32;100274.91;;;10.99;100.00
34243;BME280;20504;43.214;27.920;2023-02-28T01:05:57;100273.19;;;10.98;100.00
34243;BME280;20504;43.214;27.920;2023-02-28T01:08:23;100200.44;;;11.13;100.00
34243;BME280;20504;43.214;27.920;2023-02-28T01:10:49;100226.69;;;11.05;100.00
34243;BME280;20504;43.214;27.920;2023-02-28T01:13:14;100247.50;;;10.98;100.00
34243;BME280;20504;43.214;27.920;2023-02-28T01:15:43;100215.00;;;10.95;100.00
34243;BME280;20504;43.214;27.920;2023-02-28T01:18:10;100215.63;;;11.11;100.00
34243;BME280;20504;43.214;27.920;2023-02-28T01:20:37;100235.28;;;11.08;100.00
34243;BME280;20504;43.214;27.920;2023-02-28T01:23:03;100258.13;;;10.98;100.00
34243;BME280;20504;43.214;27.920;2023-02-28T01:25:28;100225.94;;;11.03;100.00
34243;BME280;20504;43.214;27.920;2023-02-28T01:27:54;100252.91;;;10.97;100.00
34243;BME280;20504;43.214;27.920;2023-02-28T01:30:19;100303.09;;;10.74;100.00
34243;BME280;20504;43.214;27.920;2023-02-28T01:32:45;100262.06;;;10.80;100.00
34243;BME280;20504;43.214;27.920;2023-02-28T01:35:10;100237.00;;;10.84;100.00
34243;BME280;20504;43.214;27.920;2023-02-28T01:37:36;100214.81;;;10.72;100.00
34243;BME280;20504;43.214;27.920;2023-02-28T01:40:01;100199.88;;;10.84;100.00
34243;BME280;20504;43.214;27.920;2023-02-28T01:42:27;100221.81;;;10.73;100.00
34243;BME280;20504;43.214;27.920;2023-02-28T01:45:03;100193.50;;;10.74;100.00
34243;BME280;20504;43.214;27.920;2023-02-28T01:47:35;100151.50;;;10.80;100.00
34243;BME280;20504;43.214;27.920;2023-02-28T01:50:06;100127.78;;;10.90;100.00
34243;BME280;20504;43.214;27.920;2023-02-28T01:52:32;100143.09;;;10.74;100.00
34243;BME280;20504;43.214;27.920;2023-02-28T01:55:00;100140.03;;;10.80;100.00
34243;BME280;20504;43.214;27.920;2023-02-28T01:57:41;100114.78;;;10.74;100.00
34243;BME280;20504;43.214;27.920;2023-02-28T02:00:11;100121.81;;;10.63;100.00
34243;BME280;20504;43.214;27.920;2023-02-28T02:02:41;100133.16;;;10.65;100.00
34243;BME280;20504;43.214;27.920;2023-02-28T02:05:11;100129.44;;;10.67;100.00
34243;BME280;20504;43.214;27.920;2023-02-28T02:07:43;100091.97;;;10.72;100.00
34243;BME280;20504;43.214;27.920;2023-02-28T02:10:18;100058.91;;;10.65;100.00
34243;BME280;20504;43.214;27.920;2023-02-28T02:15:28;100088.69;;;10.68;100.00
34243;BME280;20504;43.214;27.920;2023-02-28T02:18:14;100102.41;;;10.62;100.00
34243;BME280;20504;43.214;27.920;2023-02-28T02:23:38;100060.16;;;10.72;100.00
34243;BME280;20504;43.214;27.920;2023-02-28T02:36:58;100056.47;;;10.61;100.00
34243;BME280;20504;43.214;27.920;2023-02-28T02:39:47;100077.59;;;10.50;100.00
34243;BME280;20504;43.214;27.920;2023-02-28T02:42:23;100044.09;;;10.49;100.00
34243;BME280;20504;43.214;27.920;2023-02-28T02:44:58;100066.16;;;10.50;100.00
34243;BME280;20504;43.214;27.920;2023-02-28T02:47:28;100068.25;;;10.57;100.00
34243;BME280;20504;43.214;27.920;2023-02-28T02:49:58;100119.06;;;10.39;100.00
34243;BME280;20504;43.214;27.920;2023-02-28T02:52:32;100113.31;;;10.57;100.00
34243;BME280;20504;43.214;27.920;2023-02-28T02:55:02;100121.72;;;10.51;100.00
34243;BME280;20504;43.214;27.920;2023-02-28T02:57:57;100048.91;;;10.68;100.00
34243;BME280;20504;43.214;27.920;2023-02-28T03:00:37;100135.94;;;10.50;100.00
34243;BME280;20504;43.214;27.920;2023-02-28T03:03:04;100087.66;;;10.58;100.00
34243;BME280;20504;43.214;27.920;2023-02-28T03:05:35;100142.31;;;10.60;100.00
34243;BME280;20504;43.214;27.920;2023-02-28T03:08:05;100159.25;;;10.58;100.00
34243;BME280;20504;43.214;27.920;2023-02-28T03:10:44;100222.16;;;10.56;100.00
34243;BME280;20504;43.214;27.920;2023-02-28T03:16:17;100229.38;;;10.67;100.00
34243;BME280;20504;43.214;27.920;2023-02-28T03:24:20;100345.19;;;10.53;100.00
34243;BME280;20504;43.214;27.920;2023-02-28T03:26:55;100357.97;;;10.34;100.00
34243;BME280;20504;43.214;27.920;2023-02-28T03:29:34;100378.63;;;10.29;100.00
34243;BME280;20504;43.214;27.920;2023-02-28T03:32:21;100347.69;;;10.29;100.00
34243;BME280;20504;43.214;27.920;2023-02-28T03:34:58;100366.53;;;10.25;100.00
34243;BME280;20504;43.214;27.920;2023-02-28T03:37:30;100356.91;;;10.24;100.00
34243;BME280;20504;43.214;27.920;2023-02-28T03:40:00;100380.56;;;9.98;100.00
34243;BME280;20504;43.214;27.920;2023-02-28T03:42:29;100323.94;;;10.14;100.00
34243;BME280;20504;43.214;27.920;2023-02-28T03:45:12;100272.84;;;10.12;100.00
34243;BME280;20504;43.214;27.920;2023-02-28T03:47:44;100277.41;;;10.10;100.00
34243;BME280;20504;43.214;27.920;2023-02-28T03:50:51;100211.38;;;10.19;100.00
34243;BME280;20504;43.214;27.920;2023-02-28T03:53:29;100200.78;;;10.19;100.00
34243;BME280;20504;43.214;27.920;2023-02-28T03:56:17;100197.88;;;10.24;100.00
34243;BME280;20504;43.214;27.920;2023-02-28T03:58:53;100184.50;;;10.38;100.00
34243;BME280;20504;43.214;27.920;2023-02-28T04:01:49;100176.44;;;10.40;100.00
34243;BME280;20504;43.214;27.920;2023-02-28T04:04:16;100214.31;;;10.42;100.00
34243;BME280;20504;43.214;27.920;2023-02-28T04:06:42;100237.34;;;10.41;100.00
34243;BME280;20504;43.214;27.920;2023-02-28T04:09:10;100242.94;;;10.24;100.00
34243;BME280;20504;43.214;27.920;2023-02-28T04:11:50;100248.47;;;10.19;100.00
34243;BME280;20504;43.214;27.920;2023-02-28T04:14:17;100327.03;;;9.93;100.00
34243;BME280;20504;43.214;27.920;2023-02-28T04:16:42;100334.44;;;9.88;100.00
34243;BME280;20504;43.214;27.920;2023-02-28T04:19:10;100322.41;;;9.97;100.00
34243;BME280;20504;43.214;27.920;2023-02-28T04:21:44;100291.03;;;10.03;100.00
34243;BME280;20504;43.214;27.920;2023-02-28T04:24:12;100263.69;;;10.03;100.00
34243;BME280;20504;43.214;27.920;2023-02-28T04:26:44;100222.94;;;10.18;100.00
34243;BME280;20504;43.214;27.920;2023-02-28T04:29:12;100235.44;;;10.16;100.00
34243;BME280;20504;43.214;27.920;2023-02-28T04:31:38;100244.88;;;10.08;100.00
34243;BME280;20504;43.214;27.920;2023-02-28T04:34:04;100274.88;;;10.08;100.00
34243;BME280;20504;43.214;27.920;2023-02-28T04:36:29;100254.19;;;10.13;100.00
34243;BME280;20504;43.214;27.920;2023-02-28T04:38:55;100245.94;;;10.18;100.00
34243;BME280;20504;43.214;27.920;2023-02-28T04:41:20;100230.69;;;10.21;100.00
34243;BME280;20504;43.214;27.920;2023-02-28T04:43:47;100252.94;;;10.19;100.00
34243;BME280;20504;43.214;27.920;2023-02-28T04:46:12;100241.38;;;10.20;100.00
34243;BME280;20504;43.214;27.920;2023-02-28T04:48:39;100291.88;;;9.91;100.00
34243;BME280;20504;43.214;27.920;2023-02-28T04:51:09;100268.34;;;9.99;100.00
34243;BME280;20504;43.214;27.920;2023-02-28T04:53:37;100260.63;;;9.96;100.00
34243;BME280;20504;43.214;27.920;2023-02-28T04:56:04;100237.78;;;10.08;100.00
34243;BME280;20504;43.214;27.920;2023-02-28T04:58:29;100237.88;;;10.07;100.00
34243;BME280;20504;43.214;27.920;2023-02-28T05:01:02;100201.53;;;10.09;100.00
34243;BME280;20504;43.214;27.920;2023-02-28T05:03:28;100190.06;;;10.08;100.00
34243;BME280;20504;43.214;27.920;2023-02-28T05:05:53;100241.13;;;9.97;100.00
34243;BME280;20504;43.214;27.920;2023-02-28T05:08:19;100196.75;;;10.14;100.00
34243;BME280;20504;43.214;27.920;2023-02-28T05:10:44;100173.81;;;10.00;100.00
34243;BME280;20504;43.214;27.920;2023-02-28T05:13:12;100161.13;;;10.18;100.00
34243;BME280;20504;43.214;27.920;2023-02-28T05:15:37;100141.44;;;10.22;100.00
34243;BME280;20504;43.214;27.920;2023-02-28T05:18:03;100175.41;;;10.02;100.00
34243;BME280;20504;43.214;27.920;2023-02-28T05:20:28;100182.06;;;9.83;100.00
34243;BME280;20504;43.214;27.920;2023-02-28T05:22:54;100134.19;;;9.98;100.00
34243;BME280;20504;43.214;27.920;2023-02-28T05:25:21;100097.13;;;10.11;100.00
34243;BME280;20504;43.214;27.920;2023-02-28T05:27:49;100044.84;;;10.13;100.00
34243;BME280;20504;43.214;27.920;2023-02-28T05:30:16;100006.59;;;10.17;100.00
34243;BME280;20504;43.214;27.920;2023-02-28T05:32:41;99974.91;;;10.16;100.00
34243;BME280;20504;43.214;27.920;2023-02-28T05:35:11;99939.53;;;10.41;100.00
34243;BME280;20504;43.214;27.920;2023-02-28T05:37:38;99982.97;;;10.27;100.00
34243;BME280;20504;43.214;27.920;2023-02-28T05:40:04;100033.31;;;10.27;100.00
34243;BME280;20504;43.214;27.920;2023-02-28T05:42:40;100032.88;;;10.33;100.00
34243;BME280;20504;43.214;27.920;2023-02-28T05:45:07;100015.28;;;10.45;100.00
34243;BME280;20504;43.214;27.920;2023-02-28T05:47:33;100011.81;;;10.55;100.00
34243;BME280;20504;43.214;27.920;2023-02-28T05:49:58;100034.72;;;10.56;100.00
34243;BME280;20504;43.214;27.920;2023-02-28T05:52:24;100085.34;;;10.41;100.00
34243;BME280;20504;43.214;27.920;2023-02-28T05:54:49;100112.00;;;10.26;100.00
34243;BME280;20504;43.214;27.920;2023-02-28T05:57:15;100057.69;;;10.32;100.00
34243;BME280;20504;43.214;27.920;2023-02-28T05:59:40;100019.53;;;10.35;100.00
34243;BME280;20504;43.214;27.920;2023-02-28T06:02:10;100017.53;;;10.13;100.00
34243;BME280;20504;43.214;27.920;2023-02-28T06:04:37;99976.19;;;9.85;100.00
34243;BME280;20504;43.214;27.920;2023-02-28T06:07:02;99889.25;;;9.66;100.00
34243;BME280;20504;43.214;27.920;2023-02-28T06:09:28;99825.59;;;9.31;100.00
34243;BME280;20504;43.214;27.920;2023-02-28T06:11:54;99684.03;;;9.13;100.00
34243;BME280;20504;43.214;27.920;2023-02-28T06:14:20;99477.25;;;9.19;100.00
34243;BME280;20504;43.214;27.920;2023-02-28T06:16:46;99236.41;;;9.31;100.00
34243;BME280;20504;43.214;27.920;2023-02-28T06:19:12;98984.09;;;9.32;100.00
34243;BME280;20504;43.214;27.920;2023-02-28T06:21:38;98793.91;;;9.08;100.00
34243;BME280;20504;43.214;27.920;2023-02-28T06:24:04;98491.22;;;9.22;100.00
34243;BME280;20504;43.214;27.920;2023-02-28T06:26:30;98218.16;;;9.10;100.00
34243;BME280;20504;43.214;27.920;2023-02-28T06:28:55;97910.09;;;9.24;100.00
34243;BME280;20504;43.214;27.920;2023-02-28T06:31:21;97578.09;;;9.38;100.00
34243;BME280;20504;43.214;27.920;2023-02-28T06:33:47;97270.69;;;9.36;100.00
34243;BME280;20504;43.214;27.920;2023-02-28T06:36:15;96966.00;;;9.49;100.00
34243;BME280;20504;43.214;27.920;2023-02-28T06:38:41;96812.41;;;9.35;100.00
34243;BME280;20504;43.214;27.920;2023-02-28T06:41:07;96605.16;;;9.36;100.00
34243;BME280;20504;43.214;27.920;2023-02-28T06:43:35;96418.28;;;9.37;100.00
34243;BME280;20504;43.214;27.920;2023-02-28T06:46:02;96196.03;;;9.45;100.00
34243;BME280;20504;43.214;27.920;2023-02-28T06:48:28;95954.00;;;9.43;100.00
34243;BME280;20504;43.214;27.920;2023-02-28T06:51:09;95645.47;;;9.56;100.00
34243;BME280;20504;43.214;27.920;2023-02-28T06:53:35;95477.22;;;9.62;100.00
34243;BME280;20504;43.214;27.920;2023-02-28T06:56:05;95346.28;;;9.59;100.00
34243;BME280;20504;43.214;27.920;2023-02-28T06:58:31;95223.97;;;9.64;100.00
34243;BME280;20504;43.214;27.920;2023-02-28T07:00:57;95168.19;;;9.54;100.00
34243;BME280;20504;43.214;27.920;2023-02-28T07:03:22;95085.22;;;9.55;100.00
34243;BME280;20504;43.214;27.920;2023-02-28T07:05:48;95018.09;;;9.56;100.00
34243;BME280;20504;43.214;27.920;2023-02-28T07:08:14;94961.31;;;9.58;100.00
34243;BME280;20504;43.214;27.920;2023-02-28T07:10:39;94982.63;;;9.33;100.00
34243;BME280;20504;43.214;27.920;2023-02-28T07:13:07;94893.84;;;9.56;100.00
34243;BME280;20504;43.214;27.920;2023-02-28T07:15:33;94841.88;;;9.61;100.00
34243;BME280;20504;43.214;27.920;2023-02-28T07:17:59;94780.84;;;9.63;100.00
34243;BME280;20504;43.214;27.920;2023-02-28T07:20:24;94681.41;;;9.74;100.00
34243;BME280;20504;43.214;27.920;2023-02-28T07:22:50;94563.41;;;9.84;100.00
34243;BME280;20504;43.214;27.920;2023-02-28T07:25:30;94465.91;;;9.71;100.00
34243;BME280;20504;43.214;27.920;2023-02-28T07:27:56;94387.19;;;9.78;100.00
34243;BME280;20504;43.214;27.920;2023-02-28T07:30:21;94296.25;;;9.79;100.00
34243;BME280;20504;43.214;27.920;2023-02-28T07:32:47;94316.50;;;9.68;100.00
34243;BME280;20504;43.214;27.920;2023-02-28T07:35:12;94234.59;;;9.74;100.00
34243;BME280;20504;43.214;27.920;2023-02-28T07:37:40;94198.25;;;9.64;100.00
34243;BME280;20504;43.214;27.920;2023-02-28T07:40:09;94100.13;;;9.82;100.00
34243;BME280;20504;43.214;27.920;2023-02-28T07:42:40;93976.06;;;10.08;100.00
34243;BME280;20504;43.214;27.920;2023-02-28T07:45:06;94152.91;;;9.72;100.00
34243;BME280;20504;43.214;27.920;2023-02-28T07:47:32;94128.91;;;9.79;100.00
34243;BME280;20504;43.214;27.920;2023-02-28T07:49:57;94095.81;;;10.03;100.00
34243;BME280;20504;43.214;27.920;2023-02-28T07:52:24;94152.81;;;9.89;100.00
34243;BME280;20504;43.214;27.920;2023-02-28T07:54:50;94236.38;;;9.68;100.00
34243;BME280;20504;43.214;27.920;2023-02-28T07:57:16;94229.31;;;9.74;100.00
34243;BME280;20504;43.214;27.920;2023-02-28T07:59:42;94223.72;;;9.70;100.00
34243;BME280;20504;43.214;27.920;2023-02-28T08:02:17;94272.59;;;9.67;100.00
34243;BME280;20504;43.214;27.920;2023-02-28T08:04:44;94264.03;;;9.82;100.00
34243;BME280;20504;43.214;27.920;2023-02-28T08:07:10;94304.84;;;9.86;100.00
34243;BME280;20504;43.214;27.920;2023-02-28T08:09:40;94296.53;;;9.99;100.00
34243;BME280;20504;43.214;27.920;2023-02-28T08:12:07;94424.84;;;9.85;100.00
34243;BME280;20504;43.214;27.920;2023-02-28T08:14:33;94461.22;;;9.95;100.00
34243;BME280;20504;43.214;27.920;2023-02-28T08:16:58;94509.22;;;10.03;100.00
34243;BME280;20504;43.214;27.920;2023-02-28T08:19:24;94578.00;;;10.03;100.00
34243;BME280;20504;43.214;27.920;2023-02-28T08:21:50;94626.28;;;10.11;100.00
34243;BME280;20504;43.214;27.920;2023-02-28T08:24:15;94708.31;;;10.11;100.00
34243;BME280;20504;43.214;27.920;2023-02-28T08:26:41;94843.38;;;9.92;100.00
34243;BME280;20504;43.214;27.920;2023-02-28T08:29:06;94957.91;;;9.93;100.00
34243;BME280;20504;43.214;27.920;2023-02-28T08:31:32;94965.41;;;10.08;100.00
34243;BME280;20504;43.214;27.920;2023-02-28T08:33:57;95076.25;;;9.97;100.00
34243;BME280;20504;43.214;27.920;2023-02-28T08:36:25;95229.56;;;9.74;100.00
34243;BME280;20504;43.214;27.920;2023-02-28T08:38:51;95236.13;;;10.01;100.00
34243;BME280;20504;43.214;27.920;2023-02-28T08:41:17;95301.56;;;9.94;100.00
34243;BME280;20504;43.214;27.920;2023-02-28T08:43:43;95404.50;;;9.96;100.00
34243;BME280;20504;43.214;27.920;2023-02-28T08:46:11;95451.16;;;9.90;100.00
34243;BME280;20504;43.214;27.920;2023-02-28T08:48:38;95487.06;;;10.05;100.00
34243;BME280;20504;43.214;27.920;2023-02-28T08:51:07;95518.97;;;10.10;100.00
34243;BME280;20504;43.214;27.920;2023-02-28T08:53:35;95499.34;;;10.17;100.00
34243;BME280;20504;43.214;27.920;2023-02-28T08:56:02;95531.25;;;10.29;100.00
34243;BME280;20504;43.214;27.920;2023-02-28T08:58:28;95602.03;;;10.09;100.00
34243;BME280;20504;43.214;27.920;2023-02-28T09:00:54;95698.69;;;10.11;100.00
34243;BME280;20504;43.214;27.920;2023-02-28T09:03:21;95767.06;;;10.21;100.00
34243;BME280;20504;43.214;27.920;2023-02-28T09:05:56;95748.84;;;10.44;100.00
34243;BME280;20504;43.214;27.920;2023-02-28T09:08:23;95789.63;;;10.30;100.00
34243;BME280;20504;43.214;27.920;2023-02-28T09:10:49;95976.81;;;10.23;100.00
34243;BME280;20504;43.214;27.920;2023-02-28T09:13:14;96037.66;;;10.36;100.00
34243;BME280;20504;43.214;27.920;2023-02-28T09:15:40;96129.31;;;10.37;100.00
34243;BME280;20504;43.214;27.920;2023-02-28T09:18:05;96162.50;;;10.59;100.00
34243;BME280;20504;43.214;27.920;2023-02-28T09:20:31;96304.72;;;10.59;100.00
34243;BME280;20504;43.214;27.920;2023-02-28T09:22:56;96457.94;;;10.55;100.00
34243;BME280;20504;43.214;27.920;2023-02-28T09:25:22;96538.31;;;10.76;100.00
34243;BME280;20504;43.214;27.920;2023-02-28T09:27:47;96672.78;;;10.95;100.00
34243;BME280;20504;43.214;27.920;2023-02-28T09:30:13;96980.16;;;10.52;100.00
34243;BME280;20504;43.214;27.920;2023-02-28T09:32:39;97060.84;;;10.65;100.00
34243;BME280;20504;43.214;27.920;2023-02-28T09:35:05;97193.34;;;10.65;100.00
34243;BME280;20504;43.214;27.920;2023-02-28T09:37:30;97258.13;;;10.77;100.00
34243;BME280;20504;43.214;27.920;2023-02-28T09:39:56;97306.59;;;10.85;100.00
34243;BME280;20504;43.214;27.920;2023-02-28T09:42:28;97405.03;;;10.82;100.00
34243;BME280;20504;43.214;27.920;2023-02-28T09:44:56;97562.66;;;10.64;100.00
34243;BME280;20504;43.214;27.920;2023-02-28T09:47:41;97598.25;;;10.69;100.00
34243;BME280;20504;43.214;27.920;2023-02-28T09:50:29;97698.97;;;10.61;100.00
34243;BME280;20504;43.214;27.920;2023-02-28T09:52:55;97798.34;;;10.57;100.00
34243;BME280;20504;43.214;27.920;2023-02-28T09:55:45;97870.75;;;10.66;100.00
34243;BME280;20504;43.214;27.920;2023-02-28T09:58:26;97993.28;;;10.59;100.00
34243;BME280;20504;43.214;27.920;2023-02-28T10:01:05;98079.91;;;10.59;100.00
34243;BME280;20504;43.214;27.920;2023-02-28T10:03:38;98200.59;;;10.45;100.00
34243;BME280;20504;43.214;27.920;2023-02-28T10:06:13;98210.00;;;10.66;100.00
34243;BME280;20504;43.214;27.920;2023-02-28T10:09:08;98285.78;;;10.58;100.00
34243;BME280;20504;43.214;27.920;2023-02-28T10:11:40;98313.38;;;10.48;100.00
34243;BME280;20504;43.214;27.920;2023-02-28T10:14:21;98416.91;;;10.37;100.00
34243;BME280;20504;43.214;27.920;2023-02-28T10:17:35;98430.50;;;10.51;100.00
34243;BME280;20504;43.214;27.920;2023-02-28T10:20:17;98364.31;;;10.59;100.00
34243;BME280;20504;43.214;27.920;2023-02-28T10:22:57;98429.16;;;10.47;100.00
34243;BME280;20504;43.214;27.920;2023-02-28T10:25:28;98427.66;;;10.63;100.00
34243;BME280;20504;43.214;27.920;2023-02-28T10:28:00;98495.25;;;10.49;100.00
34243;BME280;20504;43.214;27.920;2023-02-28T10:30:27;98489.59;;;10.61;100.00
34243;BME280;20504;43.214;27.920;2023-02-28T10:32:53;98531.59;;;10.56;100.00
34243;BME280;20504;43.214;27.920;2023-02-28T10:35:21;98548.59;;;10.64;100.00
34243;BME280;20504;43.214;27.920;2023-02-28T10:37:54;98606.94;;;10.54;100.00
34243;BME280;20504;43.214;27.920;2023-02-28T10:43:03;98563.50;;;10.92;100.00
34243;BME280;20504;43.214;27.920;2023-02-28T10:45:33;98604.81;;;10.95;100.00
34243;BME280;20504;43.214;27.920;2023-02-28T10:53:32;98805.03;;;10.52;100.00
34243;BME280;20504;43.214;27.920;2023-02-28T10:56:13;98769.72;;;10.71;100.00
34243;BME280;20504;43.214;27.920;2023-02-28T11:01:45;98677.53;;;10.92;100.00
34243;BME280;20504;43.214;27.920;2023-02-28T11:04:33;98689.28;;;10.89;100.00
34243;BME280;20504;43.214;27.920;2023-02-28T11:07:17;98737.84;;;10.90;100.00
34243;BME280;20504;43.214;27.920;2023-02-28T11:09:46;98628.00;;;11.20;100.00
34243;BME280;20504;43.214;27.920;2023-02-28T11:12:23;98001.09;;;12.09;100.00
34243;BME280;20504;43.214;27.920;2023-02-28T11:14:53;97493.72;;;12.38;100.00
34243;BME280;20504;43.214;27.920;2023-02-28T11:17:22;97220.38;;;12.78;100.00
34243;BME280;20504;43.214;27.920;2023-02-28T11:19:52;97231.41;;;13.24;100.00
34243;BME280;20504;43.214;27.920;2023-02-28T11:22:21;97521.06;;;13.27;100.00
34243;BME280;20504;43.214;27.920;2023-02-28T11:24:51;97778.63;;;13.32;100.00
34243;BME280;20504;43.214;27.920;2023-02-28T11:27:43;97904.31;;;13.57;100.00
34243;BME280;20504;43.214;27.920;2023-02-28T11:30:37;98163.31;;;13.51;100.00
34243;BME280;20504;43.214;27.920;2023-02-28T11:33:23;98496.50;;;13.40;100.00
34243;BME280;20504;43.214;27.920;2023-02-28T11:35:57;98822.56;;;13.27;100.00
34243;BME280;20504;43.214;27.920;2023-02-28T11:38:25;99147.63;;;12.97;100.00
34243;BME280;20504;43.214;27.920;2023-02-28T11:51:56;99791.66;;;12.34;100.00
34243;BME280;20504;43.214;27.920;2023-02-28T12:00:49;99957.50;;;12.00;100.00
34243;BME280;20504;43.214;27.920;2023-02-28T12:22:33;99978.19;;;11.50;100.00
34243;BME280;20504;43.214;27.920;2023-02-28T12:25:29;99992.22;;;11.63;100.00
34243;BME280;20504;43.214;27.920;2023-02-28T12:27:59;100120.06;;;11.11;100.00
34243;BME280;20504;43.214;27.920;2023-02-28T12:30:32;100020.38;;;11.31;100.00
34243;BME280;20504;43.214;27.920;2023-02-28T12:33:06;99932.22;;;11.61;100.00
34243;BME280;20504;43.214;27.920;2023-02-28T12:35:49;99985.44;;;11.37;100.00
34243;BME280;20504;43.214;27.920;2023-02-28T12:38:20;99982.78;;;11.37;100.00
34243;BME280;20504;43.214;27.920;2023-02-28T12:40:58;100043.00;;;11.12;100.00
34243;BME280;20504;43.214;27.920;2023-02-28T12:43:31;100006.31;;;11.06;100.00
34243;BME280;20504;43.214;27.920;2023-02-28T12:46:09;99983.94;;;11.21;100.00
34243;BME280;20504;43.214;27.920;2023-02-28T12:48:49;99898.50;;;11.28;100.00
34243;BME280;20504;43.214;27.920;2023-02-28T12:51:18;100019.34;;;11.09;100.00
34243;BME280;20504;43.214;27.920;2023-02-28T12:56:20;100070.38;;;10.65;100.00
34243;BME280;20504;43.214;27.920;2023-02-28T12:59:00;99984.88;;;10.61;100.00
34243;BME280;20504;43.214;27.920;2023-02-28T13:01:45;99981.88;;;10.66;100.00
34243;BME280;20504;43.214;27.920;2023-02-28T13:09:38;99850.31;;;10.52;100.00
34243;BME280;20504;43.214;27.920;2023-02-28T13:12:14;99847.34;;;10.33;100.00
34243;BME280;20504;43.214;27.920;2023-02-28T13:14:41;99797.72;;;10.35;100.00
34243;BME280;20504;43.214;27.920;2023-02-28T13:19:43;99668.13;;;10.66;100.00
34243;BME280;20504;43.214;27.920;2023-02-28T13:27:50;99739.78;;;10.18;100.00
34243;BME280;20504;43.214;27.920;2023-02-28T13:33:33;99628.81;;;10.26;100.00
34243;BME280;20504;43.214;27.920;2023-02-28T13:38:46;99623.94;;;10.20;100.00
34243;BME280;20504;43.214;27.920;2023-02-28T13:41:45;99578.16;;;10.18;100.00
34243;BME280;20504;43.214;27.920;2023-02-28T13:44:19;99597.16;;;10.00;100.00
34243;BME280;20504;43.214;27.920;2023-02-28T14:00:23;99368.91;;;9.95;100.00
34243;BME280;20504;43.214;27.920;2023-02-28T14:03:53;99274.56;;;10.15;100.00
34243;BME280;20504;43.214;27.920;2023-02-28T14:11:35;99279.72;;;9.85;100.00
34243;BME280;20504;43.214;27.920;2023-02-28T14:14:03;99251.22;;;9.88;100.00
34243;BME280;20504;43.214;27.920;2023-02-28T14:16:46;99189.38;;;9.99;100.00
34243;BME280;20504;43.214;27.920;2023-02-28T14:19:15;99129.44;;;10.19;100.00
34243;BME280;20504;43.214;27.920;2023-02-28T14:25:05;99107.38;;;10.09;100.00
34243;BME280;20504;43.214;27.920;2023-02-28T14:36:14;99128.06;;;10.03;100.00
34243;BME280;20504;43.214;27.920;2023-02-28T14:39:18;99077.88;;;10.02;100.00
34243;BME280;20504;43.214;27.920;2023-02-28T14:41:46;99080.41;;;10.03;100.00
34243;BME280;20504;43.214;27.920;2023-02-28T14:46:46;99081.50;;;10.22;100.00
34243;BME280;20504;43.214;27.920;2023-02-28T14:49:18;99114.06;;;10.13;100.00
34243;BME280;20504;43.214;27.920;2023-02-28T14:51:45;99149.03;;;10.07;100.00
34243;BME280;20504;43.214;27.920;2023-02-28T14:54:15;99204.13;;;9.92;100.00
34243;BME280;20504;43.214;27.920;2023-02-28T14:56:41;99202.94;;;9.85;100.00
34243;BME280;20504;43.214;27.920;2023-02-28T14:59:29;99151.97;;;9.71;100.00
34243;BME280;20504;43.214;27.920;2023-02-28T15:02:23;99149.75;;;9.88;100.00